Time,TemperatureF,DewpointF,PressureIn,WindDirection,WindDirectionDegrees,WindSpeedMPH,WindSpeedGustMPH,Humidity,HourlyPrecipIn,Conditions,Clouds,dailyrainin,SoftwareType,DateUTC
2013-04-10 00:14:00,57.8,55.0,29.98,SSW,211,0.0,0.0,89,0.00,,,0.00,weatherlink.com 1.10,2013-04-10 05:14:00,
2013-04-10 00:29:00,57.5,55.0,29.98,SSW,211,0.0,0.0,90,0.00,,,0.00,weatherlink.com 1.10,2013-04-10 05:29:00,
2013-04-10 00:44:00,57.1,54.0,29.98,SSW,211,0.0,0.0,90,0.00,,,0.00,weatherlink.com 1.10,2013-04-10 05:44:00,
2013-04-10 00:59:00,56.9,54.0,29.98,SSW,211,0.0,0.0,91,0.00,,,0.00,weatherlink.com 1.10,2013-04-10 05:59:00,
2013-04-10 01:14:00,56.7,54.0,29.98,SSW,211,0.0,0.0,91,0.00,,,0.00,weatherlink.com 1.10,2013-04-10 06:14:00,
2013-04-10 01:30:00,56.6,54.0,29.97,SSW,211,0.0,0.0,91,0.00,,,0.00,weatherlink.com 1.10,2013-04-10 06:30:00,
2013-04-10 01:45:00,56.4,54.0,29.97,SSW,211,0.0,0.0,91,0.00,,,0.00,weatherlink.com 1.10,2013-04-10 06:45:00,
2013-04-10 02:00:00,56.2,54.0,29.96,West,266,0.0,0.0,92,0.00,,,0.00,weatherlink.com 1.10,2013-04-10 07:00:00,
2013-04-10 02:15:00,56.4,55.0,29.96,WSW,252,0.0,3.0,93,0.00,,,0.00,weatherlink.com 1.10,2013-04-10 07:15:00,
2013-04-10 02:30:00,56.6,54.0,29.96,WSW,252,0.0,0.0,92,0.00,,,0.00,weatherlink.com 1.10,2013-04-10 07:30:00,
2013-04-10 02:45:00,56.7,55.0,29.96,WSW,252,0.0,0.0,92,0.00,,,0.00,weatherlink.com 1.10,2013-04-10 07:45:00,
2013-04-10 03:00:00,56.6,54.0,29.95,WSW,252,0.0,0.0,91,0.00,,,0.00,weatherlink.com 1.10,2013-04-10 08:00:00,
2013-04-10 03:15:00,56.3,54.0,29.95,WSW,252,0.0,0.0,92,0.00,,,0.00,weatherlink.com 1.10,2013-04-10 08:15:00,
2013-04-10 03:30:00,55.8,54.0,29.95,WSW,252,0.0,0.0,92,0.00,,,0.00,weatherlink.com 1.10,2013-04-10 08:30:00,
2013-04-10 03:45:00,55.5,53.0,29.95,WSW,252,0.0,0.0,92,0.00,,,0.00,weatherlink.com 1.10,2013-04-10 08:45:00,
2013-04-10 04:00:00,55.1,53.0,29.95,WSW,252,0.0,0.0,92,0.00,,,0.00,weatherlink.com 1.10,2013-04-10 09:00:00,
2013-04-10 04:15:00,54.8,53.0,29.95,WSW,252,0.0,0.0,92,0.00,,,0.00,weatherlink.com 1.10,2013-04-10 09:15:00,
2013-04-10 04:30:00,54.3,52.0,29.95,WSW,252,0.0,0.0,92,0.00,,,0.00,weatherlink.com 1.10,2013-04-10 09:30:00,
2013-04-10 04:45:00,54.1,52.0,29.95,WSW,252,0.0,0.0,93,0.00,,,0.00,weatherlink.com 1.10,2013-04-10 09:45:00,
2013-04-10 05:00:00,53.6,51.0,29.94,WSW,252,0.0,0.0,92,0.00,,,0.00,weatherlink.com 1.10,2013-04-10 10:00:00,
2013-04-10 05:15:00,53.2,51.0,29.94,WSW,252,0.0,0.0,93,0.00,,,0.00,weatherlink.com 1.10,2013-04-10 10:15:00,
2013-04-10 05:30:00,52.9,51.0,29.95,WSW,252,0.0,0.0,93,0.00,,,0.00,weatherlink.com 1.10,2013-04-10 10:30:00,
2013-04-10 05:45:00,52.6,51.0,29.94,WSW,252,0.0,0.0,93,0.00,,,0.00,weatherlink.com 1.10,2013-04-10 10:45:00,
2013-04-10 06:00:00,52.3,50.0,29.94,WSW,252,0.0,0.0,93,0.00,,,0.00,weatherlink.com 1.10,2013-04-10 11:00:00,
2013-04-10 06:15:00,52.0,50.0,29.95,WSW,252,0.0,0.0,94,0.00,,,0.00,weatherlink.com 1.10,2013-04-10 11:15:00,
2013-04-10 06:30:00,51.7,50.0,29.95,WSW,252,0.0,0.0,94,0.00,,,0.00,weatherlink.com 1.10,2013-04-10 11:30:00,
2013-04-10 06:45:00,51.7,50.0,29.95,WSW,252,0.0,0.0,94,0.00,,,0.00,weatherlink.com 1.10,2013-04-10 11:45:00,
2013-04-10 07:00:00,51.7,50.0,29.96,WSW,252,0.0,0.0,94,0.00,,,0.00,weatherlink.com 1.10,2013-04-10 12:00:00,
2013-04-10 07:15:00,51.9,51.0,29.96,WSW,252,0.0,0.0,95,0.00,,,0.00,weatherlink.com 1.10,2013-04-10 12:15:00,
2013-04-10 07:30:00,52.5,51.0,29.97,WSW,252,0.0,0.0,95,0.00,,,0.00,weatherlink.com 1.10,2013-04-10 12:30:00,
2013-04-10 07:45:00,53.8,53.0,29.98,WSW,252,0.0,0.0,96,0.00,,,0.00,weatherlink.com 1.10,2013-04-10 12:45:00,
2013-04-10 08:00:00,55.4,54.0,29.98,WSW,252,0.0,0.0,96,0.00,,,0.00,weatherlink.com 1.10,2013-04-10 13:00:00,
2013-04-10 08:15:00,58.0,57.0,29.98,South,191,0.0,1.0,97,0.00,,,0.00,weatherlink.com 1.10,2013-04-10 13:15:00,
2013-04-10 08:30:00,60.1,59.0,29.99,South,184,1.0,1.0,97,0.00,,,0.00,weatherlink.com 1.10,2013-04-10 13:30:00,
2013-04-10 08:45:00,62.2,60.0,30.00,SSW,200,0.0,2.0,91,0.00,,,0.00,weatherlink.com 1.10,2013-04-10 13:45:00,
2013-04-10 09:00:00,65.4,60.0,30.00,West,263,2.0,3.0,83,0.00,,,0.00,weatherlink.com 1.10,2013-04-10 14:00:00,
2013-04-10 09:15:00,68.3,61.0,30.00,West,270,0.0,5.0,78,0.00,,,0.00,weatherlink.com 1.10,2013-04-10 14:15:00,
2013-04-10 09:30:00,70.2,61.0,30.00,SSW,200,0.0,3.0,72,0.00,,,0.00,weatherlink.com 1.10,2013-04-10 14:30:00,
2013-04-10 09:46:00,71.6,62.0,30.00,WSW,238,0.0,3.0,71,0.00,,,0.00,weatherlink.com 1.10,2013-04-10 14:46:00,
2013-04-10 10:01:00,72.9,62.0,29.99,WSW,257,0.0,4.0,68,0.00,,,0.00,weatherlink.com 1.10,2013-04-10 15:01:00,
2013-04-10 10:16:00,74.2,63.0,30.00,SW,215,0.0,5.0,67,0.00,,,0.00,weatherlink.com 1.10,2013-04-10 15:16:00,
2013-04-10 12:01:00,79.6,62.0,29.98,South,169,2.0,9.0,55,0.00,,,0.00,weatherlink.com 1.10,2013-04-10 17:01:00,
2013-04-10 12:16:00,80.7,62.0,29.97,SSE,168,0.0,4.0,53,0.00,,,0.00,weatherlink.com 1.10,2013-04-10 17:16:00,
2013-04-10 12:31:00,81.1,62.0,29.96,NW,312,0.0,4.0,53,0.00,,,0.00,weatherlink.com 1.10,2013-04-10 17:31:00,
2013-04-10 13:01:00,81.9,62.0,29.96,West,269,3.0,8.0,52,0.00,,,0.00,weatherlink.com 1.10,2013-04-10 18:01:00,
2013-04-10 13:16:00,81.8,62.0,29.95,West,266,1.0,3.0,52,0.00,,,0.00,weatherlink.com 1.10,2013-04-10 18:16:00,
2013-04-10 13:31:00,82.2,63.0,29.95,South,181,2.0,5.0,52,0.00,,,0.00,weatherlink.com 1.10,2013-04-10 18:31:00,
2013-04-10 13:46:00,82.8,61.0,29.94,SSW,203,1.0,8.0,48,0.00,,,0.00,weatherlink.com 1.10,2013-04-10 18:46:00,
2013-04-10 14:01:00,82.6,61.0,29.93,SSW,198,0.0,6.0,49,0.00,,,0.00,weatherlink.com 1.10,2013-04-10 19:01:00,
2013-04-10 14:16:00,82.3,61.0,29.93,SW,219,0.0,4.0,49,0.00,,,0.00,weatherlink.com 1.10,2013-04-10 19:16:00,
2013-04-10 14:31:00,83.6,61.0,29.92,South,191,0.0,5.0,47,0.00,,,0.00,weatherlink.com 1.10,2013-04-10 19:31:00,
2013-04-10 14:46:00,84.5,61.0,29.91,South,189,0.0,7.0,45,0.00,,,0.00,weatherlink.com 1.10,2013-04-10 19:46:00,
2013-04-10 15:01:00,84.2,61.0,29.90,WSW,253,0.0,5.0,46,0.00,,,0.00,weatherlink.com 1.10,2013-04-10 20:01:00,
2013-04-10 15:17:00,84.5,60.0,29.90,West,271,3.0,7.0,44,0.00,,,0.00,weatherlink.com 1.10,2013-04-10 20:17:00,
2013-04-10 15:32:00,84.0,60.0,29.89,SSW,201,0.0,7.0,45,0.00,,,0.00,weatherlink.com 1.10,2013-04-10 20:32:00,
2013-04-10 15:47:00,83.8,59.0,29.89,ESE,113,1.0,6.0,43,0.00,,,0.00,weatherlink.com 1.10,2013-04-10 20:47:00,
2013-04-10 16:02:00,83.2,60.0,29.88,SSW,198,1.0,6.0,45,0.00,,,0.00,weatherlink.com 1.10,2013-04-10 21:02:00,
2013-04-10 16:17:00,83.9,60.0,29.87,West,259,2.0,5.0,44,0.00,,,0.00,weatherlink.com 1.10,2013-04-10 21:17:00,
2013-04-10 16:32:00,83.7,60.0,29.87,West,261,2.0,4.0,44,0.00,,,0.00,weatherlink.com 1.10,2013-04-10 21:32:00,
2013-04-10 16:47:00,83.6,59.0,29.87,WSW,246,0.0,4.0,44,0.00,,,0.00,weatherlink.com 1.10,2013-04-10 21:47:00,
2013-04-10 17:02:00,83.4,59.0,29.86,West,274,0.0,5.0,44,0.00,,,0.00,weatherlink.com 1.10,2013-04-10 22:02:00,
2013-04-10 17:17:00,82.7,60.0,29.85,WNW,286,2.0,3.0,46,0.00,,,0.00,weatherlink.com 1.10,2013-04-10 22:17:00,
2013-04-10 17:32:00,82.9,59.0,29.84,WSW,250,0.0,5.0,44,0.00,,,0.00,weatherlink.com 1.10,2013-04-10 22:32:00,
2013-04-10 17:47:00,82.7,60.0,29.84,West,269,0.0,3.0,46,0.00,,,0.00,weatherlink.com 1.10,2013-04-10 22:47:00,
2013-04-10 18:17:00,81.5,60.0,29.83,South,172,0.0,2.0,48,0.00,,,0.00,weatherlink.com 1.10,2013-04-10 23:17:00,
2013-04-10 18:32:00,80.0,59.0,29.83,WSW,255,0.0,3.0,49,0.00,,,0.00,weatherlink.com 1.10,2013-04-10 23:32:00,
2013-04-10 18:47:00,78.5,59.0,29.82,SSE,167,0.0,1.0,51,0.00,,,0.00,weatherlink.com 1.10,2013-04-10 23:47:00,
2013-04-10 19:02:00,76.6,58.0,29.83,SSW,200,0.0,2.0,53,0.00,,,0.00,weatherlink.com 1.10,2013-04-11 00:02:00,
2013-04-10 19:32:00,73.3,58.0,29.82,SSW,202,0.0,0.0,60,0.00,,,0.00,weatherlink.com 1.10,2013-04-11 00:32:00,
2013-04-10 19:47:00,71.7,59.0,29.81,SSW,202,0.0,0.0,65,0.00,,,0.00,weatherlink.com 1.10,2013-04-11 00:47:00,
2013-04-10 20:02:00,70.3,59.0,29.81,SSW,192,0.0,1.0,68,0.00,,,0.00,weatherlink.com 1.10,2013-04-11 01:02:00,
2013-04-10 20:17:00,69.1,59.0,29.80,SSW,192,0.0,0.0,70,0.00,,,0.00,weatherlink.com 1.10,2013-04-11 01:17:00,
2013-04-10 20:32:00,68.4,58.0,29.80,SSW,202,0.0,0.0,70,0.00,,,0.00,weatherlink.com 1.10,2013-04-11 01:32:00,
2013-04-10 20:47:00,68.3,59.0,29.80,West,273,0.0,1.0,71,0.00,,,0.00,weatherlink.com 1.10,2013-04-11 01:47:00,
2013-04-10 21:02:00,68.3,59.0,29.80,WSW,254,0.0,2.0,73,0.00,,,0.00,weatherlink.com 1.10,2013-04-11 02:02:00,
2013-04-10 21:17:00,68.1,60.0,29.80,South,178,0.0,1.0,74,0.00,,,0.00,weatherlink.com 1.10,2013-04-11 02:17:00,
2013-04-10 21:32:00,67.6,59.0,29.81,South,180,0.0,3.0,73,0.00,,,0.00,weatherlink.com 1.10,2013-04-11 02:32:00,
2013-04-10 21:47:00,67.2,59.0,29.80,South,191,0.0,0.0,75,0.00,,,0.00,weatherlink.com 1.10,2013-04-11 02:47:00,
2013-04-10 22:02:00,66.7,59.0,29.80,South,191,0.0,0.0,76,0.00,,,0.00,weatherlink.com 1.10,2013-04-11 03:02:00,
2013-04-10 22:17:00,66.2,58.0,29.81,South,179,0.0,0.0,76,0.00,,,0.00,weatherlink.com 1.10,2013-04-11 03:17:00,
2013-04-10 22:47:00,65.1,58.0,29.80,SSW,192,0.0,2.0,78,0.00,,,0.00,weatherlink.com 1.10,2013-04-11 03:47:00,
2013-04-10 23:02:00,64.9,58.0,29.81,SSW,192,0.0,0.0,79,0.00,,,0.00,weatherlink.com 1.10,2013-04-11 04:02:00,
2013-04-10 23:17:00,64.4,58.0,29.81,SSW,192,0.0,0.0,80,0.00,,,0.00,weatherlink.com 1.10,2013-04-11 04:17:00,
2013-04-10 23:32:00,64.0,58.0,29.82,SSW,192,0.0,0.0,81,0.00,,,0.00,weatherlink.com 1.10,2013-04-11 04:32:00,
2013-04-10 23:47:00,63.7,58.0,29.81,SSW,192,0.0,0.0,82,0.00,,,0.00,weatherlink.com 1.10,2013-04-11 04:47:00,